Time;durP1;ratioP1;P1;durP2;ratioP2;P2;SDS_P1;SDS_P2;PMS_P1;PMS_P2;Temp;Humidity;BMP_temperature;BMP_pressure;BME280_temperature;BME280_humidity;BME280_pressure;Samples;Min_cycle;Max_cycle;Signal;HPM_P1;HPM_P2
2023/03/15 00:01:40;;;;;;;5.78;1.60;;;3.10;99.90;;;;;;4994294;28;20046;-73
2023/03/15 00:04:06;;;;;;;8.65;2.45;;;3.20;99.90;;;;;;4994218;28;20034;-72
2023/03/15 00:06:33;;;;;;;8.98;1.40;;;3.20;99.90;;;;;;4994199;28;20100;-72
2023/03/15 00:09:00;;;;;;;9.95;1.70;;;3.20;99.90;;;;;;4978026;28;20124;-72
2023/03/15 00:11:29;;;;;;;10.88;1.42;;;3.10;99.90;;;;;;4994423;28;20054;-72
2023/03/15 00:13:58;;;;;;;11.45;2.13;;;3.20;99.90;;;;;;4993224;28;20042;-72
2023/03/15 00:16:25;;;;;;;8.00;1.63;;;3.20;99.90;;;;;;4993858;28;20049;-72
2023/03/15 00:18:52;;;;;;;10.38;2.13;;;3.20;99.90;;;;;;4994065;28;20121;-72
2023/03/15 00:21:18;;;;;;;9.38;1.75;;;3.30;99.90;;;;;;4993892;28;20403;-72
2023/03/15 00:23:43;;;;;;;13.85;1.52;;;3.30;99.90;;;;;;4994178;28;20034;-72
2023/03/15 00:26:09;;;;;;;10.60;1.55;;;3.30;99.90;;;;;;4993944;28;20074;-72
2023/03/15 00:28:35;;;;;;;13.65;2.05;;;3.40;99.90;;;;;;4994086;28;20034;-72
2023/03/15 00:31:11;;;;;;;10.93;2.30;;;3.30;99.90;;;;;;4994041;28;20534;-72
2023/03/15 00:33:37;;;;;;;8.02;1.50;;;3.40;99.90;;;;;;4993584;28;20173;-72
2023/03/15 00:36:05;;;;;;;9.30;1.35;;;3.40;99.90;;;;;;4993680;28;20089;-72
2023/03/15 00:38:32;;;;;;;7.63;1.13;;;3.40;99.90;;;;;;4993645;28;20054;-72
2023/03/15 00:41:02;;;;;;;11.10;1.67;;;3.40;99.90;;;;;;4993565;28;20574;-72
2023/03/15 00:43:28;;;;;;;8.88;1.13;;;3.40;99.90;;;;;;4993769;28;20511;-72
2023/03/15 00:45:53;;;;;;;13.48;1.90;;;3.30;99.90;;;;;;4995024;28;20046;-72
2023/03/15 00:48:19;;;;;;;10.50;1.52;;;3.30;99.90;;;;;;4993461;28;20113;-72
2023/03/15 00:50:45;;;;;;;10.30;1.77;;;3.30;99.90;;;;;;4993400;28;20046;-72
2023/03/15 00:53:10;;;;;;;12.07;2.20;;;3.30;99.90;;;;;;4993340;28;20074;-71
2023/03/15 00:55:36;;;;;;;7.95;1.60;;;3.30;99.90;;;;;;4993329;28;20046;-72
2023/03/15 00:58:01;;;;;;;8.50;1.42;;;3.30;99.90;;;;;;4993289;28;20046;-72
2023/03/15 01:00:27;;;;;;;10.18;1.20;;;3.40;99.90;;;;;;4993179;28;20112;-72
2023/03/15 01:02:53;;;;;;;8.45;1.35;;;3.40;99.90;;;;;;4993097;28;20053;-71
2023/03/15 01:05:20;;;;;;;11.30;1.42;;;3.50;99.90;;;;;;4993979;28;20070;-72
2023/03/15 01:07:46;;;;;;;10.30;1.40;;;3.50;99.90;;;;;;4993400;28;20057;-72
2023/03/15 01:10:13;;;;;;;9.23;1.50;;;3.50;99.90;;;;;;4993077;28;20447;-72
2023/03/15 01:12:40;;;;;;;6.55;1.17;;;3.50;99.90;;;;;;4993853;28;20135;-72
2023/03/15 01:15:07;;;;;;;12.32;1.55;;;3.40;99.90;;;;;;4976777;28;20058;-72
2023/03/15 01:17:33;;;;;;;11.30;1.63;;;3.40;99.90;;;;;;4992968;28;20049;-72
2023/03/15 01:19:59;;;;;;;13.25;1.70;;;3.40;99.90;;;;;;4992848;28;20042;-72
2023/03/15 01:22:26;;;;;;;11.52;1.58;;;3.40;99.90;;;;;;4993130;28;20043;-72
2023/03/15 01:24:51;;;;;;;14.57;2.08;;;3.30;99.90;;;;;;4992710;28;20051;-72
2023/03/15 01:27:17;;;;;;;10.38;1.65;;;3.30;99.90;;;;;;4992817;28;20050;-72
2023/03/15 01:29:43;;;;;;;8.32;1.15;;;3.30;99.90;;;;;;4992756;28;20487;-72
2023/03/15 01:32:08;;;;;;;14.10;1.65;;;3.30;99.90;;;;;;4992985;28;20045;-72
2023/03/15 01:34:35;;;;;;;8.30;1.65;;;3.20;99.90;;;;;;4992570;28;20117;-72
2023/03/15 01:37:01;;;;;;;12.65;1.30;;;3.20;99.90;;;;;;4992718;28;20034;-72
2023/03/15 01:39:28;;;;;;;9.68;1.48;;;3.20;99.90;;;;;;4992854;28;20038;-72
2023/03/15 01:41:53;;;;;;;9.30;1.92;;;3.20;99.90;;;;;;4992631;28;20046;-72
2023/03/15 01:44:19;;;;;;;10.65;1.60;;;3.10;99.90;;;;;;4976310;28;20038;-72
2023/03/15 01:46:45;;;;;;;9.27;1.35;;;3.10;99.90;;;;;;4992583;28;20034;-72
2023/03/15 01:49:31;;;;;;;9.40;1.35;;;3.10;99.90;;;;;;4992559;28;20041;-72
2023/03/15 01:52:01;;;;;;;10.73;1.45;;;3.10;99.90;;;;;;4992581;28;20495;-72
2023/03/15 01:54:32;;;;;;;9.60;1.70;;;3.00;99.90;;;;;;4992451;28;20121;-72
2023/03/15 01:57:06;;;;;;;11.55;1.50;;;3.00;99.90;;;;;;4993827;28;20052;-72
2023/03/15 01:59:42;;;;;;;9.13;1.30;;;3.10;99.90;;;;;;4994271;28;20038;-72
2023/03/15 02:02:07;;;;;;;8.32;1.35;;;3.10;99.90;;;;;;4992488;28;20541;-72
2023/03/15 02:04:39;;;;;;;10.85;2.08;;;3.00;99.90;;;;;;4992338;28;20039;-72
2023/03/15 02:07:07;;;;;;;11.13;1.00;;;3.00;99.90;;;;;;4992419;28;20402;-72
2023/03/15 02:09:50;;;;;;;12.02;1.40;;;3.00;99.90;;;;;;4992384;28;20038;-72
2023/03/15 02:12:17;;;;;;;16.80;2.95;;;3.00;99.90;;;;;;4992364;28;20034;-72
2023/03/15 02:14:44;;;;;;;10.15;1.20;;;2.90;99.90;;;;;;4992274;28;20042;-72
2023/03/15 02:17:10;;;;;;;7.88;1.00;;;2.90;99.90;;;;;;4992336;28;20049;-72
2023/03/15 02:19:56;;;;;;;7.03;1.65;;;2.80;99.90;;;;;;4992223;28;20042;-72
2023/03/15 02:22:52;;;;;;;10.43;1.23;;;2.80;99.90;;;;;;4992321;28;20402;-72
2023/03/15 02:25:26;;;;;;;9.48;1.70;;;2.90;99.90;;;;;;4992524;28;20050;-72
2023/03/15 02:27:52;;;;;;;8.15;1.42;;;2.80;99.90;;;;;;4992282;28;20554;-72
2023/03/15 02:30:18;;;;;;;13.70;1.35;;;2.80;99.90;;;;;;4992441;28;20121;-72
2023/03/15 02:32:43;;;;;;;10.20;1.38;;;2.80;99.90;;;;;;4992037;28;20049;-72
2023/03/15 02:35:09;;;;;;;10.70;1.20;;;2.80;99.90;;;;;;4992109;28;20051;-72
2023/03/15 02:37:35;;;;;;;17.88;2.35;;;2.80;99.90;;;;;;4976855;28;20038;-72
2023/03/15 02:40:00;;;;;;;10.20;1.60;;;2.80;99.90;;;;;;4995822;28;20491;-72
2023/03/15 02:42:27;;;;;;;11.18;1.40;;;2.80;99.90;;;;;;4995752;28;20038;-72
2023/03/15 02:44:53;;;;;;;4.95;1.00;;;2.80;99.90;;;;;;4995700;28;20533;-71
2023/03/15 02:47:24;;;;;;;10.43;1.75;;;2.80;99.90;;;;;;4995689;28;20518;-72
2023/03/15 02:49:52;;;;;;;9.32;1.20;;;2.80;99.90;;;;;;4995773;28;20046;-72
2023/03/15 02:52:18;;;;;;;10.48;1.25;;;2.70;99.90;;;;;;4995954;28;20038;-72
2023/03/15 02:54:44;;;;;;;13.43;1.70;;;2.80;99.90;;;;;;4995529;28;20045;-72
2023/03/15 02:57:14;;;;;;;10.32;1.88;;;2.80;99.90;;;;;;4995514;28;20046;-72
2023/03/15 02:59:43;;;;;;;10.98;1.90;;;2.80;99.90;;;;;;4995462;28;20514;-72
2023/03/15 03:02:10;;;;;;;8.50;1.15;;;2.70;99.90;;;;;;4995477;28;20046;-72
2023/03/15 03:04:36;;;;;;;5.93;1.10;;;2.70;99.90;;;;;;4995598;28;20110;-72
2023/03/15 03:07:02;;;;;;;5.97;1.08;;;2.70;99.90;;;;;;4995398;28;20042;-72
2023/03/15 03:09:28;;;;;;;9.95;1.30;;;2.70;99.90;;;;;;4995338;28;20457;-71
2023/03/15 03:11:54;;;;;;;10.38;1.60;;;2.70;99.90;;;;;;4995325;28;20072;-72
2023/03/15 03:14:22;;;;;;;5.90;1.38;;;2.70;99.90;;;;;;4995211;28;20407;-72
2023/03/15 03:16:48;;;;;;;5.78;1.05;;;2.70;99.90;;;;;;4995408;28;20499;-72
2023/03/15 03:19:14;;;;;;;5.93;1.02;;;2.70;99.90;;;;;;4995453;28;20096;-72
2023/03/15 03:21:43;;;;;;;8.95;1.42;;;2.60;99.90;;;;;;4995018;28;20050;-72
2023/03/15 03:24:09;;;;;;;8.95;1.77;;;2.60;99.90;;;;;;4995001;28;20122;-72
2023/03/15 03:26:36;;;;;;;11.15;2.13;;;2.50;99.90;;;;;;4995007;28;20038;-72
2023/03/15 03:29:06;;;;;;;10.73;1.20;;;2.60;99.90;;;;;;4994971;28;20464;-72
2023/03/15 03:31:32;;;;;;;10.10;1.63;;;2.50;99.90;;;;;;4994903;28;20046;-72
2023/03/15 03:33:58;;;;;;;7.70;1.17;;;2.40;99.90;;;;;;4994643;28;20042;-72
2023/03/15 03:36:24;;;;;;;7.15;0.85;;;2.40;99.90;;;;;;4994882;28;20046;-72
2023/03/15 03:38:50;;;;;;;9.10;1.30;;;2.40;99.90;;;;;;4994792;28;20073;-72
2023/03/15 03:41:16;;;;;;;8.45;1.77;;;2.40;99.90;;;;;;4995835;28;20042;-72
2023/03/15 03:43:41;;;;;;;10.00;1.60;;;2.40;99.90;;;;;;4994666;28;20042;-72
2023/03/15 03:46:07;;;;;;;7.00;1.38;;;2.40;99.90;;;;;;4994661;28;20085;-72
2023/03/15 03:48:33;;;;;;;5.50;1.25;;;2.30;99.90;;;;;;4994395;28;20096;-72
2023/03/15 03:50:58;;;;;;;8.48;1.17;;;2.30;99.90;;;;;;4995840;28;20046;-72
2023/03/15 03:53:24;;;;;;;6.50;1.38;;;2.30;99.90;;;;;;4994493;28;20046;-72
2023/03/15 03:55:50;;;;;;;5.32;1.00;;;2.30;99.90;;;;;;4994504;28;20044;-72
2023/03/15 03:58:15;;;;;;;8.80;1.15;;;2.30;99.90;;;;;;4994410;28;20042;-72
2023/03/15 04:00:41;;;;;;;9.38;1.17;;;2.20;99.90;;;;;;4994356;28;20038;-72
2023/03/15 04:03:08;;;;;;;6.45;1.70;;;2.20;99.90;;;;;;4994335;28;20093;-72
2023/03/15 04:05:34;;;;;;;7.15;1.20;;;2.20;99.90;;;;;;4994345;28;20045;-72
2023/03/15 04:08:00;;;;;;;8.00;2.22;;;2.30;99.90;;;;;;4994223;28;20038;-72
2023/03/15 04:10:25;;;;;;;11.18;1.80;;;2.20;99.90;;;;;;4994486;28;20065;-72
2023/03/15 04:12:57;;;;;;;11.55;1.80;;;2.20;99.90;;;;;;4994114;28;20094;-71
2023/03/15 04:15:23;;;;;;;4.90;0.90;;;2.30;99.90;;;;;;4994340;28;20113;-72
2023/03/15 04:17:54;;;;;;;8.20;1.30;;;2.20;99.90;;;;;;4994055;28;20049;-72
2023/03/15 04:20:21;;;;;;;8.18;1.08;;;2.20;99.90;;;;;;4993956;28;20553;-72
2023/03/15 04:22:48;;;;;;;6.47;1.27;;;2.20;99.90;;;;;;4993970;28;20050;-72
2023/03/15 04:25:25;;;;;;;9.05;1.20;;;2.10;99.90;;;;;;4993851;28;20046;-72
2023/03/15 04:27:57;;;;;;;6.10;1.02;;;2.20;99.90;;;;;;4993935;28;20042;-72
2023/03/15 04:30:27;;;;;;;8.13;1.48;;;2.10;99.90;;;;;;4995688;28;20480;-72
2023/03/15 04:33:02;;;;;;;6.55;1.08;;;2.00;99.90;;;;;;4993567;28;20042;-72
2023/03/15 04:35:36;;;;;;;6.30;1.17;;;2.00;99.90;;;;;;4993750;28;20084;-72
2023/03/15 04:38:02;;;;;;;4.90;1.10;;;2.00;99.90;;;;;;4977487;28;20061;-72
2023/03/15 04:40:29;;;;;;;4.90;1.15;;;2.00;99.90;;;;;;4993580;28;20519;-72
2023/03/15 04:42:55;;;;;;;9.27;1.30;;;1.90;99.90;;;;;;4993532;28;20069;-72
2023/03/15 04:45:22;;;;;;;8.73;1.08;;;2.00;99.90;;;;;;4995068;28;20073;-72
2023/03/15 04:47:49;;;;;;;7.40;1.00;;;1.90;99.90;;;;;;4993528;28;20047;-72
2023/03/15 04:50:15;;;;;;;13.02;2.45;;;1.90;99.90;;;;;;4993434;28;20042;-72
2023/03/15 04:52:41;;;;;;;12.23;1.23;;;1.90;99.90;;;;;;4993428;28;20100;-72
2023/03/15 04:55:07;;;;;;;8.02;0.90;;;1.90;99.90;;;;;;4993522;28;20124;-72
2023/03/15 04:57:32;;;;;;;8.40;1.10;;;1.90;99.90;;;;;;4993335;28;20054;-72
2023/03/15 04:59:58;;;;;;;12.60;1.40;;;1.90;99.90;;;;;;4992786;28;20058;-72
2023/03/15 05:02:24;;;;;;;9.77;1.48;;;1.90;99.90;;;;;;4993023;28;20139;-72
2023/03/15 05:04:49;;;;;;;8.18;1.05;;;1.90;99.90;;;;;;4993569;28;20041;-72
2023/03/15 05:07:15;;;;;;;8.48;1.05;;;1.90;99.90;;;;;;4993117;28;20049;-73
2023/03/15 05:09:40;;;;;;;9.88;1.33;;;1.90;99.90;;;;;;4993124;28;20042;-73
2023/03/15 05:12:06;;;;;;;7.97;1.20;;;1.80;99.90;;;;;;4993306;28;20042;-72
2023/03/15 05:14:32;;;;;;;8.35;1.27;;;1.80;99.90;;;;;;4994247;28;20602;-72
2023/03/15 05:17:00;;;;;;;9.15;1.65;;;1.80;99.90;;;;;;4993213;28;20035;-72
2023/03/15 05:19:26;;;;;;;8.18;1.20;;;1.80;99.90;;;;;;4994717;28;20137;-72
2023/03/15 05:21:53;;;;;;;6.70;1.20;;;1.90;99.90;;;;;;4994085;28;20543;-72
2023/03/15 05:24:22;;;;;;;9.00;1.20;;;1.80;99.90;;;;;;4992773;28;20557;-72
2023/03/15 05:26:48;;;;;;;12.65;1.48;;;1.90;99.90;;;;;;4992848;28;20042;-72
2023/03/15 05:29:14;;;;;;;5.53;0.98;;;1.90;99.90;;;;;;4992796;28;20105;-72
2023/03/15 05:31:39;;;;;;;9.43;1.25;;;1.90;99.90;;;;;;4992805;28;20078;-72
2023/03/15 05:34:06;;;;;;;10.48;1.23;;;1.90;99.90;;;;;;4992794;28;20088;-72
2023/03/15 05:36:33;;;;;;;9.40;1.40;;;1.90;99.90;;;;;;4992961;28;20142;-72
2023/03/15 05:38:59;;;;;;;8.68;1.23;;;1.90;99.90;;;;;;4992681;28;20042;-72
2023/03/15 05:41:24;;;;;;;7.50;1.17;;;1.90;99.90;;;;;;4993808;28;20084;-72
2023/03/15 05:43:50;;;;;;;11.40;1.30;;;1.90;99.90;;;;;;4992546;28;20071;-72
2023/03/15 05:46:16;;;;;;;8.70;1.30;;;2.00;99.90;;;;;;4992611;28;20042;-72
2023/03/15 05:48:42;;;;;;;10.20;1.40;;;1.90;99.90;;;;;;4992575;28;20101;-72
2023/03/15 05:51:08;;;;;;;10.40;1.58;;;1.90;99.90;;;;;;4992825;28;20034;-72
2023/03/15 05:53:34;;;;;;;5.50;1.20;;;2.00;99.90;;;;;;4992460;28;20549;-72
2023/03/15 05:55:59;;;;;;;10.25;1.40;;;2.00;99.90;;;;;;4992522;28;20038;-72
2023/03/15 05:58:25;;;;;;;7.10;1.20;;;2.00;99.90;;;;;;4976545;28;20038;-72
2023/03/15 06:00:51;;;;;;;7.28;1.73;;;2.00;99.90;;;;;;4992516;28;20049;-72
2023/03/15 06:03:16;;;;;;;6.20;1.08;;;1.90;99.90;;;;;;4992360;28;20121;-72
2023/03/15 06:05:42;;;;;;;8.60;1.67;;;2.00;99.90;;;;;;4976266;28;20100;-72
2023/03/15 06:08:08;;;;;;;6.80;1.67;;;2.00;99.90;;;;;;4992336;28;20049;-72
2023/03/15 06:10:34;;;;;;;6.47;1.10;;;2.00;99.90;;;;;;4992360;28;20045;-72
2023/03/15 06:13:00;;;;;;;9.48;1.55;;;2.00;99.90;;;;;;4995321;28;20046;-72
2023/03/15 06:15:25;;;;;;;7.85;1.13;;;1.90;99.90;;;;;;4996352;28;20042;-72
2023/03/15 06:17:51;;;;;;;5.15;0.88;;;2.00;99.90;;;;;;4996570;28;20038;-72
2023/03/15 06:20:17;;;;;;;10.02;1.50;;;2.00;99.90;;;;;;4996168;28;20503;-72
2023/03/15 06:22:42;;;;;;;7.22;1.05;;;1.90;99.90;;;;;;4996427;28;20125;-72
2023/03/15 06:25:09;;;;;;;7.60;1.48;;;2.00;99.90;;;;;;4979778;28;20038;-72
2023/03/15 06:27:35;;;;;;;8.95;1.27;;;1.90;99.90;;;;;;4996375;28;20406;-72
2023/03/15 06:30:01;;;;;;;8.95;2.38;;;2.00;99.90;;;;;;4996348;28;20456;-72
2023/03/15 06:32:26;;;;;;;10.63;1.17;;;2.00;99.90;;;;;;4995967;28;20499;-72
2023/03/15 06:34:52;;;;;;;7.88;1.08;;;2.00;99.90;;;;;;4995870;28;20381;-72
2023/03/15 06:37:18;;;;;;;7.18;1.60;;;1.90;99.90;;;;;;4995962;28;20050;-72
2023/03/15 06:39:43;;;;;;;5.72;1.27;;;2.00;99.90;;;;;;4995843;28;20049;-72
2023/03/15 06:42:12;;;;;;;7.70;1.08;;;1.90;99.90;;;;;;4995840;28;20034;-72
2023/03/15 06:44:40;;;;;;;9.10;1.20;;;2.00;99.90;;;;;;4995757;28;20044;-72
2023/03/15 06:47:06;;;;;;;5.07;1.17;;;2.00;99.90;;;;;;4995992;28;20061;-72
2023/03/15 06:49:32;;;;;;;10.18;1.30;;;2.00;99.90;;;;;;4995681;28;20088;-72
2023/03/15 06:51:58;;;;;;;7.55;1.13;;;2.00;99.90;;;;;;4995633;28;20038;-72
2023/03/15 06:54:24;;;;;;;5.60;0.98;;;2.00;99.90;;;;;;4995790;28;20070;-72
2023/03/15 06:56:49;;;;;;;3.90;0.90;;;2.10;99.90;;;;;;4995610;28;20514;-72
2023/03/15 06:59:16;;;;;;;7.43;1.10;;;2.10;99.90;;;;;;4995524;28;20050;-72
2023/03/15 07:01:41;;;;;;;8.50;1.08;;;2.10;99.90;;;;;;4996669;28;20045;-72
2023/03/15 07:04:08;;;;;;;8.32;1.83;;;2.20;99.90;;;;;;4995337;28;20038;-72
2023/03/15 07:06:34;;;;;;;8.05;1.02;;;2.20;99.90;;;;;;4995358;28;20503;-72
2023/03/15 07:09:01;;;;;;;6.40;0.95;;;2.30;99.90;;;;;;4995409;28;20074;-72
2023/03/15 07:11:27;;;;;;;9.55;1.45;;;2.30;99.90;;;;;;4995514;28;20411;-72
2023/03/15 07:13:53;;;;;;;5.53;1.13;;;2.30;99.90;;;;;;4995235;28;20100;-72
2023/03/15 07:16:18;;;;;;;8.52;1.20;;;2.40;99.90;;;;;;4995238;28;20049;-72
2023/03/15 07:18:44;;;;;;;4.70;1.17;;;2.40;99.90;;;;;;4995189;28;20085;-72
2023/03/15 07:21:10;;;;;;;8.00;1.00;;;2.50;99.90;;;;;;4995030;28;20073;-72
2023/03/15 07:23:35;;;;;;;8.00;1.23;;;2.50;99.90;;;;;;4994442;28;20039;-72
2023/03/15 07:26:01;;;;;;;7.60;1.27;;;2.60;99.90;;;;;;4995035;28;20042;-72
2023/03/15 07:28:27;;;;;;;8.98;1.50;;;2.50;99.90;;;;;;4995269;28;20084;-72
2023/03/15 07:30:58;;;;;;;5.65;1.10;;;2.70;99.90;;;;;;4995035;28;20108;-72
2023/03/15 07:33:25;;;;;;;9.60;1.58;;;2.70;99.90;;;;;;4994800;28;20061;-72
2023/03/15 07:35:54;;;;;;;10.65;1.67;;;2.80;99.90;;;;;;4995177;28;20054;-72
2023/03/15 07:38:25;;;;;;;7.90;1.40;;;2.80;99.90;;;;;;4994892;28;20118;-72
2023/03/15 07:40:51;;;;;;;7.65;1.45;;;2.90;99.90;;;;;;4994910;28;20051;-72
2023/03/15 07:43:17;;;;;;;10.43;1.60;;;3.00;99.90;;;;;;4994950;28;20192;-72
2023/03/15 07:45:43;;;;;;;7.15;1.55;;;3.00;99.90;;;;;;4994973;28;20472;-72
2023/03/15 07:48:08;;;;;;;10.07;1.38;;;3.00;99.90;;;;;;4994650;28;20511;-72
2023/03/15 07:50:34;;;;;;;6.45;1.15;;;3.10;99.90;;;;;;4994885;28;20038;-72
2023/03/15 07:52:59;;;;;;;6.55;1.63;;;3.20;99.90;;;;;;4978578;28;20519;-71
2023/03/15 07:55:25;;;;;;;8.85;1.27;;;3.20;99.90;;;;;;4994550;28;20407;-72
2023/03/15 07:57:51;;;;;;;10.68;1.08;;;3.30;99.90;;;;;;4978576;28;20120;-72
2023/03/15 08:00:17;;;;;;;10.45;1.13;;;3.40;99.90;;;;;;4994747;28;20042;-72
2023/03/15 08:02:43;;;;;;;8.15;1.20;;;3.50;99.90;;;;;;4994358;28;20050;-72
2023/03/15 08:05:09;;;;;;;12.35;1.85;;;3.60;99.90;;;;;;4994290;28;20042;-72
2023/03/15 08:07:36;;;;;;;7.60;1.17;;;3.60;99.90;;;;;;4994304;28;20042;-72
2023/03/15 08:10:05;;;;;;;12.07;1.30;;;3.70;99.90;;;;;;4994256;28;20042;-72
2023/03/15 08:12:32;;;;;;;4.32;1.35;;;3.80;99.90;;;;;;4994241;28;20046;-72
2023/03/15 08:14:57;;;;;;;11.05;1.58;;;3.80;99.90;;;;;;4994324;28;20054;-72
2023/03/15 08:17:23;;;;;;;7.82;1.20;;;3.90;99.90;;;;;;4994050;28;20458;-72
2023/03/15 08:19:49;;;;;;;12.25;1.33;;;4.10;99.90;;;;;;4994151;28;20125;-72
2023/03/15 08:22:15;;;;;;;11.93;1.63;;;4.30;99.90;;;;;;4993924;28;20042;-72
2023/03/15 08:24:41;;;;;;;8.93;1.92;;;4.60;99.90;;;;;;4994111;28;20562;-72
2023/03/15 08:27:07;;;;;;;10.77;1.70;;;5.00;99.90;;;;;;4993882;28;20125;-72
2023/03/15 08:29:32;;;;;;;8.73;1.45;;;5.40;99.90;;;;;;4993846;28;20057;-72
2023/03/15 08:31:58;;;;;;;9.52;2.20;;;5.90;99.90;;;;;;4994074;28;20107;-72
2023/03/15 08:34:24;;;;;;;11.15;1.92;;;6.40;99.90;;;;;;4977282;28;20057;-72
2023/03/15 08:36:50;;;;;;;10.18;1.88;;;7.20;99.90;;;;;;4992794;28;20531;-72
2023/03/15 08:39:16;;;;;;;12.55;1.70;;;7.80;99.90;;;;;;4993874;28;20081;-72
2023/03/15 08:41:42;;;;;;;5.43;1.23;;;8.30;99.90;;;;;;4993567;28;20038;-72
2023/03/15 08:44:09;;;;;;;8.27;2.08;;;8.80;99.90;;;;;;4993794;28;20060;-72
2023/03/15 08:46:34;;;;;;;5.63;1.27;;;9.30;99.90;;;;;;4993846;28;20038;-75
2023/03/15 08:49:01;;;;;;;8.07;1.95;;;9.90;99.90;;;;;;4993443;28;20119;-73
2023/03/15 08:51:28;;;;;;;3.92;1.08;;;10.60;97.90;;;;;;4993467;28;20487;-73
2023/03/15 08:53:53;;;;;;;9.95;1.40;;;11.20;95.10;;;;;;4977156;28;20076;-72
2023/03/15 08:56:26;;;;;;;11.35;1.30;;;11.60;91.90;;;;;;5090786;28;20451;-71
2023/03/15 08:58:51;;;;;;;6.53;1.38;;;12.20;90.10;;;;;;5089422;28;20133;-71
2023/03/15 09:01:17;;;;;;;9.88;1.30;;;12.60;87.20;;;;;;5089354;28;20049;-71
2023/03/15 09:03:43;;;;;;;9.38;1.20;;;13.00;85.20;;;;;;5099004;28;20072;-71
2023/03/15 09:06:09;;;;;;;5.63;1.38;;;13.50;83.20;;;;;;5069106;28;20116;-71
2023/03/15 09:08:35;;;;;;;7.22;1.10;;;13.80;80.70;;;;;;5052651;28;20041;-71
2023/03/15 09:11:00;;;;;;;5.35;1.10;;;14.10;78.50;;;;;;5069203;28;20033;-71
2023/03/15 09:13:27;;;;;;;4.50;1.30;;;14.40;76.90;;;;;;5069108;28;20401;-71
2023/03/15 09:15:53;;;;;;;5.97;1.10;;;14.60;74.10;;;;;;5068802;28;20115;-71
2023/03/15 09:18:20;;;;;;;4.97;0.80;;;14.80;72.60;;;;;;5069107;28;20036;-72
2023/03/15 09:20:45;;;;;;;6.00;1.20;;;15.20;71.80;;;;;;5068770;28;20036;-72
2023/03/15 09:23:11;;;;;;;4.75;1.02;;;15.30;70.80;;;;;;5068635;28;20094;-71
2023/03/15 09:25:37;;;;;;;9.48;1.40;;;15.50;68.30;;;;;;5068716;28;20049;-71
2023/03/15 09:28:04;;;;;;;6.22;1.00;;;15.70;67.50;;;;;;5069850;28;20040;-71
2023/03/15 09:30:30;;;;;;;4.13;0.80;;;15.80;65.80;;;;;;5068607;28;20404;-71
2023/03/15 09:32:56;;;;;;;6.15;1.00;;;15.90;65.10;;;;;;5051789;28;20496;-70
2023/03/15 09:35:21;;;;;;;5.32;0.82;;;16.00;64.20;;;;;;5068461;28;20049;-71
2023/03/15 09:37:48;;;;;;;3.28;0.90;;;16.10;63.10;;;;;;5068497;28;20044;-71
2023/03/15 09:40:27;;;;;;;6.32;1.63;;;16.00;61.30;;;;;;5068399;28;20116;-70
2023/03/15 09:43:07;;;;;;;6.95;1.10;;;16.20;61.20;;;;;;5068293;28;20032;-69
2023/03/15 09:46:01;;;;;;;4.65;0.90;;;16.20;60.60;;;;;;5068316;28;20505;-71
2023/03/15 09:48:39;;;;;;;5.70;1.17;;;16.40;59.50;;;;;;5068274;28;20515;-71
2023/03/15 09:51:07;;;;;;;6.82;1.10;;;15.80;59.40;;;;;;5068479;28;20083;-71
2023/03/15 09:53:46;;;;;;;7.28;1.42;;;15.40;61.10;;;;;;5068049;28;20059;-71
2023/03/15 09:56:26;;;;;;;6.88;1.30;;;15.70;61.90;;;;;;5067916;28;20094;-72
2023/03/15 09:58:56;;;;;;;4.57;1.00;;;15.00;59.90;;;;;;5068211;28;20386;-71
2023/03/15 10:01:29;;;;;;;7.05;1.30;;;14.90;61.70;;;;;;5068002;28;20076;-71
2023/03/15 10:03:55;;;;;;;6.75;1.20;;;15.00;62.00;;;;;;5067873;28;20045;-71
2023/03/15 10:06:25;;;;;;;6.40;1.23;;;15.50;62.10;;;;;;5062610;28;20033;-71
2023/03/15 10:08:58;;;;;;;9.07;1.42;;;15.70;60.30;;;;;;5054888;28;20052;-71
2023/03/15 10:12:01;;;;;;;6.67;1.43;;;15.90;59.70;;;;;;5054580;28;20524;-71
2023/03/15 10:14:43;;;;;;;11.48;1.35;;;15.90;59.80;;;;;;5054387;28;20051;-71
2023/03/15 10:17:26;;;;;;;11.35;1.50;;;16.10;60.60;;;;;;5054749;28;20087;-71
2023/03/15 10:20:00;;;;;;;7.00;1.15;;;16.10;59.40;;;;;;5054730;28;20056;-71
2023/03/15 10:22:48;;;;;;;6.63;1.42;;;15.70;58.00;;;;;;5056212;28;20115;-71
2023/03/15 10:25:24;;;;;;;8.88;1.40;;;15.50;58.30;;;;;;5054251;28;20425;-72
2023/03/15 10:28:01;;;;;;;8.52;1.10;;;15.40;60.50;;;;;;5054310;28;20045;-71
2023/03/15 10:30:35;;;;;;;10.23;1.40;;;15.00;57.60;;;;;;5054538;28;20044;-71
2023/03/15 10:33:04;;;;;;;7.65;1.42;;;14.80;58.90;;;;;;5054066;28;20041;-71
2023/03/15 10:35:30;;;;;;;10.68;1.33;;;14.80;59.50;;;;;;5054040;28;20045;-71
2023/03/15 10:37:57;;;;;;;9.10;1.63;;;14.70;60.40;;;;;;5054329;28;20036;-71
2023/03/15 10:40:45;;;;;;;9.98;1.60;;;14.60;59.70;;;;;;5037656;28;20103;-71
2023/03/15 10:43:28;;;;;;;5.78;1.27;;;14.40;59.30;;;;;;5053864;28;20091;-70
2023/03/15 10:46:07;;;;;;;5.30;1.08;;;14.40;58.50;;;;;;5054215;28;20043;-71
2023/03/15 10:48:35;;;;;;;8.02;1.50;;;14.20;59.40;;;;;;5054182;28;20068;-71
2023/03/15 10:51:22;;;;;;;10.40;1.15;;;14.10;60.10;;;;;;5053773;28;20086;-71
2023/03/15 10:53:52;;;;;;;6.28;1.38;;;14.10;58.20;;;;;;5053738;28;20060;-71
2023/03/15 10:56:24;;;;;;;4.93;1.30;;;14.10;58.20;;;;;;5053533;28;20262;-71
2023/03/15 10:58:52;;;;;;;7.88;1.25;;;14.10;59.20;;;;;;5054016;28;20043;-71
2023/03/15 11:01:35;;;;;;;7.47;1.08;;;14.10;58.20;;;;;;5053822;28;20040;-71
2023/03/15 11:04:06;;;;;;;6.07;1.10;;;14.10;58.40;;;;;;5053780;28;20037;-71
2023/03/15 11:06:45;;;;;;;6.80;1.20;;;14.20;59.80;;;;;;5053545;28;20037;-72
2023/03/15 11:09:22;;;;;;;8.20;1.48;;;14.20;59.00;;;;;;5053494;28;20517;-72
2023/03/15 11:11:57;;;;;;;6.00;1.30;;;14.20;58.20;;;;;;5053468;28;20493;-71
2023/03/15 11:14:23;;;;;;;7.22;1.10;;;14.30;59.30;;;;;;5053267;28;20576;-71
2023/03/15 11:16:53;;;;;;;7.05;1.52;;;14.40;59.80;;;;;;5053577;28;20528;-71
2023/03/15 11:19:26;;;;;;;9.00;1.30;;;14.50;59.30;;;;;;5054087;28;20052;-71
2023/03/15 11:21:52;;;;;;;7.88;1.48;;;14.60;58.60;;;;;;5053301;28;20405;-71
2023/03/15 11:24:30;;;;;;;7.60;1.00;;;14.40;59.20;;;;;;5053353;28;20041;-71
2023/03/15 11:27:00;;;;;;;5.07;1.08;;;14.40;58.70;;;;;;5053124;28;20086;-71
2023/03/15 11:29:36;;;;;;;4.88;0.90;;;14.40;58.10;;;;;;5053137;28;20082;-71
2023/03/15 11:32:30;;;;;;;6.22;1.70;;;13.90;57.40;;;;;;5053107;28;20557;-71
2023/03/15 11:35:03;;;;;;;7.25;1.10;;;13.10;56.80;;;;;;5052610;28;20053;-71
2023/03/15 11:37:44;;;;;;;7.95;1.60;;;12.40;58.70;;;;;;5036392;28;20498;-71
2023/03/15 11:40:27;;;;;;;8.55;1.15;;;12.60;58.80;;;;;;5052931;28;20075;-72
2023/03/15 11:43:00;;;;;;;5.68;1.73;;;12.90;58.00;;;;;;5052808;28;20508;-71
2023/03/15 11:45:41;;;;;;;5.50;1.33;;;13.20;58.20;;;;;;5052824;28;20037;-71
2023/03/15 11:48:16;;;;;;;7.55;1.45;;;13.60;57.40;;;;;;5052784;28;20509;-71
2023/03/15 11:50:43;;;;;;;6.85;1.38;;;14.10;57.50;;;;;;5052998;28;20120;-71
2023/03/15 11:53:13;;;;;;;6.13;1.10;;;13.90;55.60;;;;;;5052534;28;20386;-71
2023/03/15 11:55:38;;;;;;;4.97;1.25;;;13.60;56.20;;;;;;5052334;28;20131;-71
2023/03/15 11:58:30;;;;;;;4.28;1.25;;;13.50;56.00;;;;;;5052530;28;20120;-71
2023/03/15 12:01:04;;;;;;;8.60;1.73;;;13.50;55.10;;;;;;5052549;28;20037;-72
2023/03/15 12:03:42;;;;;;;4.93;1.15;;;13.70;56.20;;;;;;5052385;28;20044;-72
2023/03/15 12:06:16;;;;;;;6.80;1.00;;;13.90;54.90;;;;;;5052450;28;20073;-72
2023/03/15 12:08:54;;;;;;;6.53;1.30;;;14.20;54.90;;;;;;5035832;28;20060;-72
2023/03/15 12:11:22;;;;;;;6.38;1.30;;;14.50;55.70;;;;;;5052603;28;20044;-71
2023/03/15 12:13:56;;;;;;;9.05;1.00;;;14.80;55.80;;;;;;5052441;28;20048;-71
2023/03/15 12:16:26;;;;;;;7.38;1.20;;;14.90;55.20;;;;;;5052212;28;20045;-72
2023/03/15 12:18:55;;;;;;;8.27;1.20;;;15.00;54.00;;;;;;5052215;28;20555;-72
2023/03/15 12:21:33;;;;;;;3.92;1.02;;;15.20;54.70;;;;;;5035599;28;20047;-72
2023/03/15 12:24:00;;;;;;;5.07;1.00;;;15.30;54.50;;;;;;5052372;28;20051;-73
2023/03/15 12:26:44;;;;;;;6.90;1.48;;;15.40;53.70;;;;;;5052304;28;20036;-72
2023/03/15 12:29:21;;;;;;;7.07;0.90;;;15.40;52.30;;;;;;5051929;28;20045;-72
2023/03/15 12:32:17;;;;;;;6.75;1.35;;;15.60;53.60;;;;;;5052235;28;20045;-71
2023/03/15 12:34:54;;;;;;;5.75;1.20;;;15.60;50.00;;;;;;5014616;28;20061;-71
2023/03/15 12:37:31;;;;;;;6.72;1.40;;;15.60;51.60;;;;;;5014871;28;20048;-71
2023/03/15 12:40:21;;;;;;;4.88;1.23;;;15.60;49.20;;;;;;5015024;28;20103;-72
2023/03/15 12:42:51;;;;;;;5.97;1.23;;;15.70;49.80;;;;;;5014696;28;20057;-71
2023/03/15 12:45:16;;;;;;;5.60;0.95;;;15.70;49.80;;;;;;5015274;28;20128;-71
2023/03/15 12:48:05;;;;;;;4.82;1.05;;;15.60;49.90;;;;;;5014551;28;20132;-71
2023/03/15 12:50:43;;;;;;;5.05;0.90;;;15.30;48.80;;;;;;4992665;28;20080;-72
2023/03/15 12:53:23;;;;;;;9.35;1.13;;;15.30;51.10;;;;;;5014542;28;20107;-71
2023/03/15 12:55:50;;;;;;;8.90;1.55;;;15.00;49.90;;;;;;5014434;28;20085;-72
2023/03/15 12:58:18;;;;;;;9.35;1.40;;;14.90;51.60;;;;;;5014607;28;20111;-72
2023/03/15 13:00:44;;;;;;;5.00;1.20;;;14.90;52.10;;;;;;5014473;28;20041;-71